Time;durP1;ratioP1;P1;durP2;ratioP2;P2;SDS_P1;SDS_P2;PMS_P1;PMS_P2;Temp;Humidity;BMP_temperature;BMP_pressure;BME280_temperature;BME280_humidity;BME280_pressure;Samples;Min_cycle;Max_cycle;Signal;HPM_P1;HPM_P2
2021/03/24 00:00:59;;;;;;;;;;;21.50;25.80;;;;;;5039544;28;19905;-73
2021/03/24 00:03:25;;;;;;;;;;;21.80;24.00;;;;;;5039196;28;19924;-73
2021/03/24 00:05:51;;;;;;;;;;;21.70;24.50;;;;;;5057308;28;20330;-73
2021/03/24 00:08:21;;;;;;;;;;;21.90;24.20;;;;;;5056940;28;20231;-73
2021/03/24 00:10:48;;;;;;;;;;;21.70;24.40;;;;;;5056619;28;19908;-73
2021/03/24 00:13:14;;;;;;;;;;;21.80;24.10;;;;;;5039670;28;19909;-74
2021/03/24 00:15:40;;;;;;;;;;;21.70;24.50;;;;;;5058034;28;19909;-73
2021/03/24 00:18:06;;;;;;;;;;;21.90;24.00;;;;;;5040787;28;20245;-74
2021/03/24 00:20:33;;;;;;;;;;;21.80;24.20;;;;;;5052444;28;19912;-73
2021/03/24 00:23:00;;;;;;;;;;;21.60;24.90;;;;;;5051390;28;19916;-73
2021/03/24 00:25:26;;;;;;;;;;;21.30;25.20;;;;;;5035987;28;19913;-73
2021/03/24 00:27:52;;;;;;;;;;;21.50;25.80;;;;;;5054907;28;19912;-73
2021/03/24 00:30:20;;;;;;;;;;;21.40;26.20;;;;;;5036430;28;20257;-73
2021/03/24 00:32:46;;;;;;;;;;;21.30;26.40;;;;;;5051643;28;20352;-73
2021/03/24 00:35:13;;;;;;;;;;;21.10;27.00;;;;;;5038207;28;20053;-73
2021/03/24 00:37:39;;;;;;;;;;;20.80;28.00;;;;;;5037353;28;19924;-73
2021/03/24 00:40:10;;;;;;;;;;;20.70;28.10;;;;;;5054190;28;19915;-73
2021/03/24 00:42:36;;;;;;;;;;;21.10;25.50;;;;;;5035092;28;20042;-73
2021/03/24 00:45:04;;;;;;;;;;;21.20;25.50;;;;;;5055000;28;20349;-73
2021/03/24 00:47:30;;;;;;;;;;;21.20;25.40;;;;;;5054013;28;19909;-73
2021/03/24 00:49:56;;;;;;;;;;;21.40;24.80;;;;;;5053839;28;20620;-73
2021/03/24 00:52:22;;;;;;;;;;;21.50;24.20;;;;;;5036899;28;19963;-73
2021/03/24 00:54:48;;;;;;;;;;;21.40;24.60;;;;;;5055691;28;20326;-74
2021/03/24 00:57:14;;;;;;;;;;;20.80;25.80;;;;;;5056088;28;20307;-72
2021/03/24 00:59:40;;;;;;;;;;;20.90;25.20;;;;;;5054949;28;19978;-73
2021/03/24 01:02:06;;;;;;;;;;;20.80;26.00;;;;;;5035672;28;19912;-73
2021/03/24 01:04:32;;;;;;;;;;;20.80;26.40;;;;;;5054007;28;19909;-74
2021/03/24 01:06:59;;;;;;;;;;;20.70;26.30;;;;;;5055637;28;19909;-74
2021/03/24 01:09:25;;;;;;;;;;;20.90;25.30;;;;;;5054129;28;19913;-74
2021/03/24 01:11:51;;;;;;;;;;;21.00;24.70;;;;;;5055458;28;19966;-74
2021/03/24 01:14:18;;;;;;;;;;;20.90;25.10;;;;;;5035709;28;19927;-73
2021/03/24 01:16:44;;;;;;;;;;;20.80;25.70;;;;;;5055952;28;19908;-73
2021/03/24 01:19:10;;;;;;;;;;;20.60;26.00;;;;;;5038614;28;19920;-73
2021/03/24 01:21:36;;;;;;;;;;;20.50;26.00;;;;;;5055076;28;19944;-74
2021/03/24 01:24:02;;;;;;;;;;;20.70;26.50;;;;;;5052055;28;19935;-73
2021/03/24 01:26:28;;;;;;;;;;;20.60;26.20;;;;;;5053459;28;19939;-74
2021/03/24 01:29:00;;;;;;;;;;;20.80;26.00;;;;;;5054351;28;19916;-74
2021/03/24 01:31:28;;;;;;;;;;;21.00;26.20;;;;;;5035501;28;19919;-74
2021/03/24 01:33:54;;;;;;;;;;;20.50;27.50;;;;;;5052390;28;19916;-73
2021/03/24 01:36:21;;;;;;;;;;;20.40;27.90;;;;;;5053665;28;20266;-73
2021/03/24 01:38:47;;;;;;;;;;;20.70;27.50;;;;;;5037720;28;19991;-73
2021/03/24 01:41:14;;;;;;;;;;;20.30;28.10;;;;;;5053410;28;20270;-74
2021/03/24 01:43:40;;;;;;;;;;;20.20;28.50;;;;;;5055769;28;20350;-75
2021/03/24 01:46:22;;;;;;;;;;;20.00;28.80;;;;;;5054166;28;19951;-74
2021/03/24 01:48:51;;;;;;;;;;;19.90;29.00;;;;;;5053194;28;19912;-74
2021/03/24 01:51:18;;;;;;;;;;;19.70;28.80;;;;;;5037990;28;19970;-76
2021/03/24 01:53:44;;;;;;;;;;;19.70;28.50;;;;;;5053918;28;19944;-78
2021/03/24 01:56:12;;;;;;;;;;;19.70;28.20;;;;;;5034223;28;20007;-76
2021/03/24 01:58:38;;;;;;;;;;;19.70;28.10;;;;;;5053445;28;20415;-73
2021/03/24 02:01:06;;;;;;;;;;;19.70;27.70;;;;;;5053041;28;19919;-73
2021/03/24 02:03:35;;;;;;;;;;;19.80;26.50;;;;;;5051589;28;19912;-73
2021/03/24 02:06:07;;;;;;;;;;;19.70;26.80;;;;;;5053170;28;19919;-74
2021/03/24 02:08:36;;;;;;;;;;;19.60;27.60;;;;;;5054734;28;19909;-73
2021/03/24 02:11:07;;;;;;;;;;;19.50;28.00;;;;;;5055511;28;20360;-74
2021/03/24 02:13:39;;;;;;;;;;;19.40;28.20;;;;;;5055083;28;19948;-74
2021/03/24 02:16:06;;;;;;;;;;;19.40;28.20;;;;;;5053621;28;20250;-73
2021/03/24 02:18:34;;;;;;;;;;;19.40;28.80;;;;;;5052392;28;19909;-73
2021/03/24 02:21:08;;;;;;;;;;;19.20;28.90;;;;;;5050530;28;20337;-74
2021/03/24 02:23:40;;;;;;;;;;;19.20;29.30;;;;;;5036836;28;19912;-73
2021/03/24 02:26:15;;;;;;;;;;;19.10;29.80;;;;;;5054441;28;19955;-73
2021/03/24 02:28:43;;;;;;;;;;;19.10;29.80;;;;;;5049316;28;19913;-75
2021/03/24 02:31:09;;;;;;;;;;;19.00;29.10;;;;;;5052342;28;21458;-72
2021/03/24 02:33:38;;;;;;;;;;;19.00;28.90;;;;;;5034843;28;19909;-74
2021/03/24 02:36:07;;;;;;;;;;;18.90;28.60;;;;;;5044922;28;19970;-73
2021/03/24 02:38:35;;;;;;;;;;;18.80;28.10;;;;;;5051271;28;19919;-74
2021/03/24 02:41:01;;;;;;;;;;;18.80;28.60;;;;;;5031855;28;19970;-74
2021/03/24 02:43:28;;;;;;;;;;;18.70;29.20;;;;;;5048932;28;20342;-73
2021/03/24 02:45:55;;;;;;;;;;;18.70;28.80;;;;;;5045188;28;19966;-74
2021/03/24 02:48:29;;;;;;;;;;;18.60;28.90;;;;;;5033243;28;20723;-72
2021/03/24 02:50:59;;;;;;;;;;;18.60;29.50;;;;;;5031766;28;19916;-73
2021/03/24 02:53:29;;;;;;;;;;;18.70;29.00;;;;;;5034357;28;20407;-74
2021/03/24 02:56:00;;;;;;;;;;;18.70;29.10;;;;;;5052133;28;20288;-74
2021/03/24 02:58:27;;;;;;;;;;;18.70;29.50;;;;;;5051824;28;20007;-73
2021/03/24 03:00:53;;;;;;;;;;;18.60;29.90;;;;;;5052146;28;20304;-74
2021/03/24 03:03:29;;;;;;;;;;;18.60;28.90;;;;;;5050975;28;19916;-73
2021/03/24 03:06:00;;;;;;;;;;;18.50;29.00;;;;;;5048955;28;19974;-73
2021/03/24 03:08:30;;;;;;;;;;;18.40;28.60;;;;;;5050717;28;19909;-73
2021/03/24 03:11:02;;;;;;;;;;;18.30;28.40;;;;;;5051506;28;20385;-73
2021/03/24 03:13:51;;;;;;;;;;;18.40;29.80;;;;;;5055148;28;19959;-73
2021/03/24 03:16:30;;;;;;;;;;;18.50;28.70;;;;;;5033671;28;19917;-73
2021/03/24 03:19:08;;;;;;;;;;;18.30;28.60;;;;;;5056800;28;19948;-73
2021/03/24 03:21:38;;;;;;;;;;;18.30;29.00;;;;;;5056046;28;20273;-73
2021/03/24 03:24:05;;;;;;;;;;;18.30;29.80;;;;;;5056701;28;20241;-74
2021/03/24 03:26:32;;;;;;;;;;;18.10;29.30;;;;;;5037975;28;19977;-74
2021/03/24 03:29:04;;;;;;;;;;;18.20;29.70;;;;;;5052812;28;20003;-73
2021/03/24 03:31:33;;;;;;;;;;;18.10;30.00;;;;;;5056077;28;20203;-73
2021/03/24 03:33:59;;;;;;;;;;;18.00;30.00;;;;;;5038643;28;19951;-72
2021/03/24 03:36:26;;;;;;;;;;;18.40;29.70;;;;;;5039584;28;20243;-73
2021/03/24 03:38:53;;;;;;;;;;;18.40;28.90;;;;;;5054467;28;19927;-73
2021/03/24 03:41:20;;;;;;;;;;;18.30;29.20;;;;;;5040058;28;19908;-73
2021/03/24 03:43:47;;;;;;;;;;;18.30;29.50;;;;;;5056412;28;19916;-74
2021/03/24 03:46:16;;;;;;;;;;;18.30;28.80;;;;;;5053924;28;19917;-73
2021/03/24 03:48:44;;;;;;;;;;;18.20;28.30;;;;;;5055558;28;19999;-73
2021/03/24 03:51:12;;;;;;;;;;;18.20;28.90;;;;;;5054638;28;20080;-73
2021/03/24 03:53:57;;;;;;;;;;;18.20;28.30;;;;;;5038363;28;20261;-73
2021/03/24 03:56:30;;;;;;;;;;;18.40;27.80;;;;;;5056382;28;20266;-73
2021/03/24 03:59:17;;;;;;;;;;;18.30;27.70;;;;;;5038138;28;19908;-73
2021/03/24 04:01:53;;;;;;;;;;;18.40;27.50;;;;;;5056880;28;19904;-73
2021/03/24 04:04:37;;;;;;;;;;;18.40;27.90;;;;;;5056358;28;20333;-73
2021/03/24 04:07:22;;;;;;;;;;;18.40;27.90;;;;;;5054997;28;19919;-75
2021/03/24 04:09:48;;;;;;;;;;;18.30;28.10;;;;;;5053815;28;19916;-73
2021/03/24 04:12:15;;;;;;;;;;;18.40;27.80;;;;;;5036481;28;20330;-73
2021/03/24 04:14:43;;;;;;;;;;;18.40;27.60;;;;;;5053580;28;19947;-73
2021/03/24 04:17:14;;;;;;;;;;;18.30;28.00;;;;;;5031227;28;19908;-73
2021/03/24 04:19:43;;;;;;;;;;;18.20;27.40;;;;;;5031679;28;19943;-73
2021/03/24 04:22:10;;;;;;;;;;;18.20;27.20;;;;;;5034096;28;20302;-73
2021/03/24 04:24:40;;;;;;;;;;;18.30;27.20;;;;;;5034490;28;20296;-73
2021/03/24 04:27:07;;;;;;;;;;;18.30;27.70;;;;;;5054269;28;19962;-72
2021/03/24 04:29:36;;;;;;;;;;;18.20;27.80;;;;;;5052276;28;19920;-73
2021/03/24 04:32:03;;;;;;;;;;;18.20;27.50;;;;;;5036022;28;20378;-73
2021/03/24 04:34:30;;;;;;;;;;;18.40;27.10;;;;;;5035791;28;19915;-73
2021/03/24 04:36:59;;;;;;;;;;;18.40;27.30;;;;;;5035793;28;19908;-72
2021/03/24 04:39:35;;;;;;;;;;;18.40;27.00;;;;;;5054277;28;19942;-73
2021/03/24 04:42:06;;;;;;;;;;;18.40;27.30;;;;;;5053915;28;20325;-73
2021/03/24 04:44:33;;;;;;;;;;;18.40;27.40;;;;;;5035819;28;19934;-73
2021/03/24 04:47:08;;;;;;;;;;;18.50;27.60;;;;;;5053819;28;19916;-73
2021/03/24 04:49:36;;;;;;;;;;;18.40;27.50;;;;;;5050839;28;19923;-73
2021/03/24 04:52:03;;;;;;;;;;;18.40;27.10;;;;;;5031931;28;19908;-73
2021/03/24 04:54:37;;;;;;;;;;;18.30;27.30;;;;;;5051613;28;20008;-73
2021/03/24 04:57:11;;;;;;;;;;;18.50;27.10;;;;;;5048550;28;19908;-73
2021/03/24 04:59:39;;;;;;;;;;;18.50;26.90;;;;;;5051162;28;20018;-73
2021/03/24 05:02:07;;;;;;;;;;;18.50;26.90;;;;;;5053584;28;20376;-73
2021/03/24 05:04:51;;;;;;;;;;;18.40;27.20;;;;;;5052975;28;19920;-73
2021/03/24 05:07:36;;;;;;;;;;;18.50;27.00;;;;;;5053264;28;19913;-73
2021/03/24 05:10:07;;;;;;;;;;;18.30;27.10;;;;;;5036323;28;19909;-73
2021/03/24 05:12:38;;;;;;;;;;;18.50;27.10;;;;;;5054560;28;19913;-74
2021/03/24 05:15:07;;;;;;;;;;;18.60;27.00;;;;;;5036219;28;19908;-73
2021/03/24 05:17:34;;;;;;;;;;;18.50;27.40;;;;;;5033786;28;19912;-74
2021/03/24 05:20:23;;;;;;;;;;;18.40;28.20;;;;;;5035840;28;19973;-74
2021/03/24 05:22:50;;;;;;;;;;;18.30;27.30;;;;;;5043492;28;19913;-73
2021/03/24 05:25:21;;;;;;;;;;;18.20;27.30;;;;;;5052765;28;19913;-73
2021/03/24 05:27:50;;;;;;;;;;;18.20;27.20;;;;;;5036536;28;19909;-73
2021/03/24 05:30:21;;;;;;;;;;;18.00;27.80;;;;;;5036730;28;19921;-73
2021/03/24 05:32:49;;;;;;;;;;;18.00;27.70;;;;;;5053803;28;19916;-73
2021/03/24 05:35:26;;;;;;;;;;;17.90;28.10;;;;;;5051952;28;19913;-73
2021/03/24 05:37:53;;;;;;;;;;;17.90;27.90;;;;;;5053035;28;19909;-74
2021/03/24 05:40:25;;;;;;;;;;;17.80;28.30;;;;;;5053166;28;19909;-74
2021/03/24 05:43:06;;;;;;;;;;;17.80;28.80;;;;;;5053306;28;20023;-73
2021/03/24 05:45:38;;;;;;;;;;;17.70;28.30;;;;;;5035721;28;19916;-73
2021/03/24 05:48:13;;;;;;;;;;;17.60;28.40;;;;;;5051226;28;19912;-74
2021/03/24 05:50:57;;;;;;;;;;;17.60;28.90;;;;;;5052288;28;19955;-73
2021/03/24 05:53:33;;;;;;;;;;;17.60;28.50;;;;;;5052095;28;20038;-74
2021/03/24 05:56:02;;;;;;;;;;;17.60;28.50;;;;;;5034516;28;19958;-74
2021/03/24 05:58:37;;;;;;;;;;;17.60;28.40;;;;;;5037431;28;19909;-74
2021/03/24 06:01:10;;;;;;;;;;;17.60;28.70;;;;;;5039441;28;20344;-74
2021/03/24 06:03:55;;;;;;;;;;;17.60;28.60;;;;;;5037365;28;19970;-74
2021/03/24 06:06:39;;;;;;;;;;;17.50;29.30;;;;;;5052768;28;19917;-72
2021/03/24 06:09:14;;;;;;;;;;;17.60;29.20;;;;;;5054552;28;19948;-74
2021/03/24 06:11:40;;;;;;;;;;;17.50;29.20;;;;;;5053650;28;19959;-73
2021/03/24 06:14:30;;;;;;;;;;;17.40;29.10;;;;;;5052083;28;19908;-73
2021/03/24 06:17:02;;;;;;;;;;;17.60;28.90;;;;;;5050396;28;19908;-73
2021/03/24 06:19:34;;;;;;;;;;;17.50;29.40;;;;;;5047856;28;20326;-73
2021/03/24 06:22:09;;;;;;;;;;;17.50;29.90;;;;;;5050635;28;19919;-73
2021/03/24 06:24:38;;;;;;;;;;;17.40;29.90;;;;;;5033978;28;19932;-73
2021/03/24 06:27:33;;;;;;;;;;;17.40;30.00;;;;;;5049044;28;19917;-73
2021/03/24 06:30:06;;;;;;;;;;;17.30;29.80;;;;;;5026487;28;19927;-75
2021/03/24 06:32:33;;;;;;;;;;;17.30;30.10;;;;;;5051786;28;19935;-74
2021/03/24 06:35:22;;;;;;;;;;;17.30;30.30;;;;;;5052925;28;19924;-73
2021/03/24 06:37:48;;;;;;;;;;;17.20;29.80;;;;;;5051190;28;19913;-73
2021/03/24 06:40:30;;;;;;;;;;;17.20;30.60;;;;;;5051966;28;20258;-73
2021/03/24 06:43:14;;;;;;;;;;;17.20;30.50;;;;;;5052792;28;19924;-73
2021/03/24 06:45:43;;;;;;;;;;;17.10;31.00;;;;;;5052368;28;20262;-73
2021/03/24 06:48:12;;;;;;;;;;;17.00;31.30;;;;;;5036466;28;20330;-73
2021/03/24 06:50:57;;;;;;;;;;;17.00;31.10;;;;;;5038250;28;19912;-73
2021/03/24 06:53:38;;;;;;;;;;;17.00;31.50;;;;;;5057111;28;19913;-72
2021/03/24 06:56:16;;;;;;;;;;;17.00;31.30;;;;;;5040185;28;19920;-73
2021/03/24 06:58:42;;;;;;;;;;;17.00;31.70;;;;;;5037165;28;19917;-73
2021/03/24 07:01:20;;;;;;;;;;;17.00;32.00;;;;;;5056478;28;19916;-73
2021/03/24 07:04:03;;;;;;;;;;;16.80;31.60;;;;;;5056102;28;19924;-73
2021/03/24 07:06:48;;;;;;;;;;;16.70;31.10;;;;;;5057339;28;19977;-73
2021/03/24 07:09:29;;;;;;;;;;;16.80;31.70;;;;;;5039564;28;20320;-73
2021/03/24 07:11:56;;;;;;;;;;;16.90;31.40;;;;;;5055550;28;19909;-73
2021/03/24 07:14:22;;;;;;;;;;;16.80;31.50;;;;;;5040001;28;19912;-73
2021/03/24 07:16:50;;;;;;;;;;;16.80;31.30;;;;;;5054907;28;19915;-73
2021/03/24 07:19:16;;;;;;;;;;;16.70;31.80;;;;;;5056448;28;19913;-74
2021/03/24 07:21:58;;;;;;;;;;;16.70;31.30;;;;;;5057939;28;19913;-73
2021/03/24 07:24:42;;;;;;;;;;;16.60;31.10;;;;;;5037287;28;19917;-73
2021/03/24 07:27:27;;;;;;;;;;;16.40;31.90;;;;;;5054162;28;19908;-73
2021/03/24 07:29:53;;;;;;;;;;;16.20;31.50;;;;;;5056269;28;20253;-73
2021/03/24 07:32:35;;;;;;;;;;;16.10;31.80;;;;;;5057111;28;19912;-73
2021/03/24 07:35:10;;;;;;;;;;;16.00;32.20;;;;;;5056124;28;19909;-73
2021/03/24 07:37:49;;;;;;;;;;;15.90;32.60;;;;;;5053705;28;19939;-73
2021/03/24 07:40:15;;;;;;;;;;;15.70;32.20;;;;;;5056884;28;19912;-73
2021/03/24 07:43:01;;;;;;;;;;;15.50;32.00;;;;;;5054418;28;20023;-73
2021/03/24 07:45:27;;;;;;;;;;;15.50;32.40;;;;;;5055820;28;20428;-73
2021/03/24 07:47:53;;;;;;;;;;;15.40;32.30;;;;;;5039625;28;19989;-73
2021/03/24 07:50:19;;;;;;;;;;;15.50;32.50;;;;;;5056488;28;20328;-73
2021/03/24 07:52:49;;;;;;;;;;;15.40;32.40;;;;;;5055896;28;19934;-73
2021/03/24 07:55:35;;;;;;;;;;;15.50;32.80;;;;;;5055155;28;19917;-73
2021/03/24 07:58:01;;;;;;;;;;;15.50;33.00;;;;;;5054852;28;19909;-75
2021/03/24 08:00:36;;;;;;;;;;;15.40;33.30;;;;;;5055328;28;19931;-72
2021/03/24 08:03:10;;;;;;;;;;;15.40;33.20;;;;;;5055558;28;20381;-73
2021/03/24 08:06:00;;;;;;;;;;;15.30;33.60;;;;;;5054129;28;19913;-73
2021/03/24 08:08:44;;;;;;;;;;;15.30;34.20;;;;;;5054813;28;19916;-73
2021/03/24 08:11:10;;;;;;;;;;;15.40;34.50;;;;;;5054305;28;19917;-73
2021/03/24 08:13:46;;;;;;;;;;;15.40;34.70;;;;;;5053854;28;19935;-74
2021/03/24 08:16:35;;;;;;;;;;;15.60;34.40;;;;;;5052967;28;19996;-73
2021/03/24 08:19:04;;;;;;;;;;;15.60;34.30;;;;;;5032031;28;19912;-73
2021/03/24 08:21:36;;;;;;;;;;;15.60;34.50;;;;;;5038188;28;19920;-73
2021/03/24 08:24:31;;;;;;;;;;;15.60;34.30;;;;;;5055736;28;19913;-73
2021/03/24 08:27:11;;;;;;;;;;;15.60;34.40;;;;;;4975733;28;20284;-73
2021/03/24 08:29:46;;;;;;;;;;;15.60;34.50;;;;;;5037577;28;19908;-73
2021/03/24 08:32:14;;;;;;;;;;;15.70;34.10;;;;;;5054543;28;19917;-73
2021/03/24 08:35:02;;;;;;;;;;;15.80;33.90;;;;;;5053696;28;19912;-73
2021/03/24 08:37:41;;;;;;;;;;;15.90;33.40;;;;;;5037431;28;20027;-73
2021/03/24 08:40:33;;;;;;;;;;;15.80;33.60;;;;;;5052854;28;19913;-73
2021/03/24 08:43:17;;;;;;;;;;;15.60;33.70;;;;;;5004444;28;20413;-72
2021/03/24 08:45:47;;;;;;;;;;;15.30;33.80;;;;;;5053910;28;19916;-72
2021/03/24 08:48:15;;;;;;;;;;;15.00;34.00;;;;;;5054119;28;19946;-72
2021/03/24 08:50:46;;;;;;;;;;;14.70;34.40;;;;;;5037911;28;19917;-72
2021/03/24 08:53:21;;;;;;;;;;;14.50;34.70;;;;;;5055126;28;20007;-72
2021/03/24 08:56:05;;;;;;;;;;;14.30;34.40;;;;;;5054058;28;19920;-73
2021/03/24 08:58:32;;;;;;;;;;;14.20;35.10;;;;;;5054759;28;19959;-73
2021/03/24 09:01:14;;;;;;;;;;;13.90;35.40;;;;;;5054879;28;19919;-73
2021/03/24 09:03:48;;;;;;;;;;;13.70;35.30;;;;;;5054317;28;19999;-74
2021/03/24 09:06:29;;;;;;;;;;;13.60;36.20;;;;;;5053942;28;19919;-73
2021/03/24 09:09:20;;;;;;;;;;;13.50;37.40;;;;;;5055240;28;20396;-73
2021/03/24 09:11:49;;;;;;;;;;;13.30;37.70;;;;;;5053975;28;20342;-73
2021/03/24 09:14:36;;;;;;;;;;;13.10;38.00;;;;;;5037301;28;19996;-73
2021/03/24 09:17:05;;;;;;;;;;;12.90;37.60;;;;;;5052382;28;20004;-73
2021/03/24 09:19:54;;;;;;;;;;;12.70;37.80;;;;;;5052864;28;19966;-73
2021/03/24 09:22:41;;;;;;;;;;;12.60;37.70;;;;;;5036785;28;20332;-73
2021/03/24 09:25:24;;;;;;;;;;;12.40;40.40;;;;;;5053082;28;19999;-73
2021/03/24 09:28:03;;;;;;;;;;;12.30;39.20;;;;;;5055424;28;20329;-73
2021/03/24 09:30:29;;;;;;;;;;;12.40;43.90;;;;;;5037610;28;19908;-73
2021/03/24 09:33:04;;;;;;;;;;;12.60;43.60;;;;;;5036634;28;19973;-73
2021/03/24 09:35:36;;;;;;;;;;;12.80;42.10;;;;;;5036582;28;20007;-73
2021/03/24 09:38:23;;;;;;;;;;;13.00;39.50;;;;;;5055433;28;20237;-73
2021/03/24 09:40:51;;;;;;;;;;;13.00;39.30;;;;;;5053134;28;19928;-73
2021/03/24 09:43:29;;;;;;;;;;;13.20;39.20;;;;;;5054106;28;20011;-74
2021/03/24 09:46:01;;;;;;;;;;;13.20;39.00;;;;;;5053194;28;19913;-73
2021/03/24 09:48:28;;;;;;;;;;;13.30;39.50;;;;;;5054488;28;19949;-73
2021/03/24 09:50:57;;;;;;;;;;;13.20;39.10;;;;;;5037138;28;20004;-73
2021/03/24 09:53:28;;;;;;;;;;;13.10;39.90;;;;;;5054512;28;19908;-72
2021/03/24 09:56:05;;;;;;;;;;;12.90;40.40;;;;;;5036447;28;19912;-73
2021/03/24 09:58:38;;;;;;;;;;;12.80;40.30;;;;;;5055605;28;19917;-72
2021/03/24 10:01:07;;;;;;;;;;;12.60;41.20;;;;;;5056724;28;19912;-73
2021/03/24 10:03:48;;;;;;;;;;;12.60;41.70;;;;;;5053701;28;19952;-73
2021/03/24 10:06:25;;;;;;;;;;;12.50;41.80;;;;;;5053953;28;19908;-73
2021/03/24 10:08:59;;;;;;;;;;;12.40;42.00;;;;;;5054425;28;19938;-73
2021/03/24 10:11:26;;;;;;;;;;;12.20;41.30;;;;;;5036528;28;19912;-73
2021/03/24 10:13:56;;;;;;;;;;;12.20;42.00;;;;;;5053401;28;19912;-73
2021/03/24 10:16:33;;;;;;;;;;;11.90;41.10;;;;;;5052706;28;19908;-73
2021/03/24 10:19:03;;;;;;;;;;;11.70;44.10;;;;;;5053851;28;19919;-73
2021/03/24 10:21:39;;;;;;;;;;;11.70;41.30;;;;;;5053001;28;19916;-73
2021/03/24 10:24:15;;;;;;;;;;;11.80;42.00;;;;;;5058596;28;19913;-73
2021/03/24 10:26:41;;;;;;;;;;;11.80;43.10;;;;;;5057047;28;19913;-73
2021/03/24 10:29:09;;;;;;;;;;;12.10;44.20;;;;;;5058440;28;20022;-73
2021/03/24 10:31:39;;;;;;;;;;;12.00;42.90;;;;;;5057386;28;19925;-73
2021/03/24 10:34:11;;;;;;;;;;;12.10;44.80;;;;;;5040355;28;19909;-73
2021/03/24 10:36:53;;;;;;;;;;;12.30;44.00;;;;;;5057548;28;19912;-74
2021/03/24 10:39:32;;;;;;;;;;;12.10;42.70;;;;;;5058399;28;19978;-73
2021/03/24 10:42:05;;;;;;;;;;;12.10;43.40;;;;;;5058327;28;20365;-73
2021/03/24 10:44:40;;;;;;;;;;;11.80;42.90;;;;;;5058370;28;19938;-73
2021/03/24 10:47:19;;;;;;;;;;;12.20;45.00;;;;;;5039778;28;20414;-73
2021/03/24 10:49:52;;;;;;;;;;;12.20;44.60;;;;;;5057374;28;19917;-73
2021/03/24 10:52:20;;;;;;;;;;;12.10;44.20;;;;;;5040493;28;19966;-73
2021/03/24 10:54:54;;;;;;;;;;;12.00;44.40;;;;;;5058344;28;19916;-75
2021/03/24 10:57:24;;;;;;;;;;;12.20;44.80;;;;;;5038837;28;20468;-73
2021/03/24 10:59:57;;;;;;;;;;;12.20;43.90;;;;;;5057233;28;19912;-74
2021/03/24 11:02:37;;;;;;;;;;;12.20;44.00;;;;;;5042331;28;19909;-73
2021/03/24 11:05:13;;;;;;;;;;;12.10;43.00;;;;;;5038953;28;19912;-73
2021/03/24 11:07:45;;;;;;;;;;;11.80;43.70;;;;;;5056143;28;20402;-73
2021/03/24 11:10:11;;;;;;;;;;;12.10;44.60;;;;;;5040058;28;19935;-73
2021/03/24 11:12:37;;;;;;;;;;;12.10;44.70;;;;;;5057434;28;19912;-74
2021/03/24 11:15:32;;;;;;;;;;;12.00;44.10;;;;;;5057905;28;19912;-73
2021/03/24 11:18:01;;;;;;;;;;;11.90;43.60;;;;;;5038742;28;19923;-73
2021/03/24 11:20:44;;;;;;;;;;;12.00;44.40;;;;;;5039406;28;19923;-73
2021/03/24 11:23:13;;;;;;;;;;;12.00;44.20;;;;;;5057563;28;20369;-74
2021/03/24 11:25:40;;;;;;;;;;;12.10;43.90;;;;;;5055569;28;19963;-72
2021/03/24 11:28:20;;;;;;;;;;;12.10;44.10;;;;;;5057031;28;20411;-73
2021/03/24 11:30:48;;;;;;;;;;;12.00;44.20;;;;;;5040796;28;19952;-73
2021/03/24 11:33:17;;;;;;;;;;;12.00;43.90;;;;;;5056418;28;19909;-73
2021/03/24 11:35:54;;;;;;;;;;;11.70;43.20;;;;;;5039478;28;19939;-73
2021/03/24 11:38:29;;;;;;;;;;;11.60;43.60;;;;;;5056683;28;19942;-73
2021/03/24 11:41:18;;;;;;;;;;;11.40;43.80;;;;;;5055595;28;19927;-73
2021/03/24 11:43:44;;;;;;;;;;;11.30;44.30;;;;;;5032809;28;19913;-73
2021/03/24 11:46:22;;;;;;;;;;;11.10;43.60;;;;;;5056178;28;19912;-72
2021/03/24 11:48:52;;;;;;;;;;;11.10;44.50;;;;;;5057205;28;19920;-75
2021/03/24 11:51:22;;;;;;;;;;;11.10;44.60;;;;;;5056822;28;19916;-73
2021/03/24 11:53:55;;;;;;;;;;;11.10;45.80;;;;;;5056798;28;20262;-73
2021/03/24 11:56:25;;;;;;;;;;;11.00;45.10;;;;;;5039252;28;19996;-72
2021/03/24 11:59:02;;;;;;;;;;;10.90;45.00;;;;;;5057949;28;19913;-73
2021/03/24 12:01:41;;;;;;;;;;;10.70;44.50;;;;;;5055581;28;19909;-72
2021/03/24 12:04:26;;;;;;;;;;;10.80;45.50;;;;;;5038714;28;20353;-73
2021/03/24 12:07:05;;;;;;;;;;;10.70;45.30;;;;;;5054711;28;20253;-72
2021/03/24 12:09:32;;;;;;;;;;;10.80;45.80;;;;;;5039390;28;19917;-73
2021/03/24 12:12:10;;;;;;;;;;;10.80;46.00;;;;;;5054515;28;19909;-72
2021/03/24 12:14:36;;;;;;;;;;;10.80;45.60;;;;;;5056176;28;20034;-73
2021/03/24 12:17:04;;;;;;;;;;;10.60;44.70;;;;;;5053951;28;19920;-73
2021/03/24 12:19:48;;;;;;;;;;;10.60;44.80;;;;;;5038843;28;19915;-72
2021/03/24 12:22:20;;;;;;;;;;;10.60;44.70;;;;;;5055011;28;20021;-73
2021/03/24 12:24:48;;;;;;;;;;;10.30;44.10;;;;;;5038289;28;19913;-73
2021/03/24 12:27:24;;;;;;;;;;;10.40;45.50;;;;;;5055951;28;20231;-72
2021/03/24 12:30:05;;;;;;;;;;;10.50;45.60;;;;;;5055850;28;19909;-72
2021/03/24 12:32:36;;;;;;;;;;;10.30;45.00;;;;;;5054822;28;19913;-72
2021/03/24 12:35:04;;;;;;;;;;;10.30;45.50;;;;;;5055477;28;19909;-72
2021/03/24 12:37:50;;;;;;;;;;;10.40;45.90;;;;;;5054493;28;19913;-72
2021/03/24 12:40:18;;;;;;;;;;;10.60;46.00;;;;;;5039844;28;19908;-72
2021/03/24 12:42:45;;;;;;;;;;;10.70;44.90;;;;;;5054630;28;19912;-72
2021/03/24 12:45:33;;;;;;;;;;;10.70;45.00;;;;;;5056426;28;19913;-72
2021/03/24 12:48:03;;;;;;;;;;;10.50;44.10;;;;;;5054547;28;19956;-72
2021/03/24 12:50:29;;;;;;;;;;;10.50;45.30;;;;;;5055104;28;20051;-73
2021/03/24 12:53:19;;;;;;;;;;;10.50;45.00;;;;;;5055247;28;19986;-73
2021/03/24 12:55:45;;;;;;;;;;;10.40;45.20;;;;;;5037626;28;19947;-73
2021/03/24 12:58:28;;;;;;;;;;;10.20;44.30;;;;;;5059844;28;20003;-73
2021/03/24 13:01:04;;;;;;;;;;;10.00;45.20;;;;;;5053892;28;19909;-72
2021/03/24 13:03:31;;;;;;;;;;;10.10;45.90;;;;;;5054429;28;20020;-72
2021/03/24 13:06:09;;;;;;;;;;;10.10;44.70;;;;;;5055244;28;19931;-72
2021/03/24 13:08:48;;;;;;;;;;;10.00;45.10;;;;;;5054711;28;19908;-72
2021/03/24 13:11:32;;;;;;;;;;;10.00;46.30;;;;;;5055741;28;19951;-72
2021/03/24 13:14:21;;;;;;;;;;;9.90;44.60;;;;;;5055887;28;20408;-72
2021/03/24 13:16:58;;;;;;;;;;;10.00;45.40;;;;;;5030305;28;20033;-72
2021/03/24 13:19:31;;;;;;;;;;;10.00;44.90;;;;;;5037041;28;19923;-73
2021/03/24 13:22:06;;;;;;;;;;;10.00;44.50;;;;;;5052752;28;19909;-74
2021/03/24 13:25:07;;;;;;;;;;;9.90;45.50;;;;;;5053553;28;19924;-72
2021/03/24 13:27:42;;;;;;;;;;;10.30;44.80;;;;;;5004922;28;20350;-72
2021/03/24 13:30:26;;;;;;;;;;;10.40;43.80;;;;;;5030047;28;19909;-72
2021/03/24 13:33:10;;;;;;;;;;;10.50;43.50;;;;;;5053882;28;19908;-73
2021/03/24 13:35:41;;;;;;;;;;;10.60;43.40;;;;;;5054264;28;19919;-72
2021/03/24 13:38:18;;;;;;;;;;;10.60;43.00;;;;;;5054812;28;19913;-72
2021/03/24 13:40:44;;;;;;;;;;;10.50;43.10;;;;;;5054277;28;19908;-72
2021/03/24 13:43:15;;;;;;;;;;;10.40;43.20;;;;;;5037250;28;20384;-72
2021/03/24 13:45:53;;;;;;;;;;;10.30;43.40;;;;;;5036924;28;19909;-72
2021/03/24 13:48:26;;;;;;;;;;;10.30;43.20;;;;;;5036907;28;20003;-72
2021/03/24 13:51:10;;;;;;;;;;;10.20;43.40;;;;;;5037126;28;19909;-72
2021/03/24 13:53:39;;;;;;;;;;;10.10;43.50;;;;;;5055419;28;19912;-72
2021/03/24 13:56:12;;;;;;;;;;;10.20;44.20;;;;;;5054450;28;19909;-72
2021/03/24 13:58:41;;;;;;;;;;;10.20;44.30;;;;;;5053734;28;19909;-72
2021/03/24 14:01:25;;;;;;;;;;;10.20;44.30;;;;;;5053038;28;19918;-72
2021/03/24 14:04:00;;;;;;;;;;;10.00;44.50;;;;;;5053355;28;19917;-72
2021/03/24 14:06:35;;;;;;;;;;;9.90;44.70;;;;;;5053685;28;19913;-72
2021/03/24 14:09:18;;;;;;;;;;;10.00;44.70;;;;;;5053845;28;20047;-72
2021/03/24 14:11:50;;;;;;;;;;;10.00;43.90;;;;;;5052809;28;19909;-72
2021/03/24 14:14:19;;;;;;;;;;;10.00;44.00;;;;;;5053618;28;20782;-72
2021/03/24 14:16:49;;;;;;;;;;;10.00;43.60;;;;;;5054366;28;20254;-72
2021/03/24 14:19:34;;;;;;;;;;;9.80;43.70;;;;;;5037650;28;19983;-72
2021/03/24 14:22:04;;;;;;;;;;;9.80;44.30;;;;;;5053847;28;20391;-71
2021/03/24 14:24:33;;;;;;;;;;;9.80;44.30;;;;;;5036578;28;19916;-73
2021/03/24 14:27:04;;;;;;;;;;;10.00;44.90;;;;;;5038775;28;19912;-72
2021/03/24 14:29:55;;;;;;;;;;;10.00;44.80;;;;;;5053279;28;19920;-72
2021/03/24 14:32:23;;;;;;;;;;;10.00;44.80;;;;;;5053539;28;19959;-72
2021/03/24 14:34:49;;;;;;;;;;;10.00;45.00;;;;;;5053618;28;19909;-73
2021/03/24 14:37:34;;;;;;;;;;;9.90;44.70;;;;;;5052279;28;19909;-73
2021/03/24 14:40:12;;;;;;;;;;;9.90;44.80;;;;;;5044860;28;19970;-72
2021/03/24 14:42:48;;;;;;;;;;;9.90;44.70;;;;;;5035641;28;19912;-72
2021/03/24 14:45:32;;;;;;;;;;;9.90;45.00;;;;;;5053234;28;19919;-73
2021/03/24 14:48:17;;;;;;;;;;;10.00;45.40;;;;;;5033255;28;20361;-73
2021/03/24 14:50:55;;;;;;;;;;;10.10;45.10;;;;;;5052616;28;19920;-72
2021/03/24 14:53:25;;;;;;;;;;;10.20;45.20;;;;;;5052861;28;19962;-72